sensor_id;sensor_type;location;lat;lon;timestamp;pressure;altitude;pressure_sealevel;temperature;humidity
54022;BME280;39936;51.058;17.220;2024-02-04T00:00:18;101699.32;;;7.42;100.00
54022;BME280;39936;51.058;17.220;2024-02-04T00:04:02;101694.26;;;7.42;100.00
54022;BME280;39936;51.058;17.220;2024-02-04T00:08:14;101682.88;;;7.40;100.00
54022;BME280;39936;51.058;17.220;2024-02-04T00:12:09;101678.13;;;7.37;100.00
54022;BME280;39936;51.058;17.220;2024-02-04T00:16:11;101684.13;;;7.30;100.00
54022;BME280;39936;51.058;17.220;2024-02-04T00:20:05;101683.35;;;7.28;100.00
54022;BME280;39936;51.058;17.220;2024-02-04T00:24:02;101688.79;;;7.25;100.00
54022;BME280;39936;51.058;17.220;2024-02-04T00:31:52;101691.39;;;7.18;100.00
54022;BME280;39936;51.058;17.220;2024-02-04T00:35:33;101652.91;;;6.97;100.00
54022;BME280;39936;51.058;17.220;2024-02-04T00:39:29;101670.05;;;7.12;100.00
54022;BME280;39936;51.058;17.220;2024-02-04T00:43:13;101683.20;;;7.13;100.00
54022;BME280;39936;51.058;17.220;2024-02-04T00:47:01;101675.45;;;7.17;100.00
54022;BME280;39936;51.058;17.220;2024-02-04T00:50:44;101683.31;;;7.17;100.00
54022;BME280;39936;51.058;17.220;2024-02-04T00:54:27;101685.27;;;7.12;100.00
54022;BME280;39936;51.058;17.220;2024-02-04T00:58:07;101681.29;;;7.08;100.00
54022;BME280;39936;51.058;17.220;2024-02-04T01:02:37;101692.08;;;7.09;100.00
54022;BME280;39936;51.058;17.220;2024-02-04T01:06:18;101683.75;;;7.06;100.00
54022;BME280;39936;51.058;17.220;2024-02-04T01:10:14;101692.62;;;7.02;100.00
54022;BME280;39936;51.058;17.220;2024-02-04T01:17:40;101701.41;;;7.05;100.00
54022;BME280;39936;51.058;17.220;2024-02-04T01:21:42;101693.98;;;7.04;100.00
54022;BME280;39936;51.058;17.220;2024-02-04T01:30:06;101687.56;;;6.95;100.00
54022;BME280;39936;51.058;17.220;2024-02-04T01:33:32;101676.93;;;6.96;100.00
54022;BME280;39936;51.058;17.220;2024-02-04T01:37:15;101651.33;;;6.77;100.00
54022;BME280;39936;51.058;17.220;2024-02-04T01:41:12;101668.09;;;6.90;100.00
54022;BME280;39936;51.058;17.220;2024-02-04T01:44:38;101671.04;;;6.87;100.00
54022;BME280;39936;51.058;17.220;2024-02-04T01:48:52;101664.58;;;6.81;100.00
54022;BME280;39936;51.058;17.220;2024-02-04T01:52:35;101671.51;;;6.84;100.00
54022;BME280;39936;51.058;17.220;2024-02-04T01:56:22;101665.96;;;6.78;100.00
54022;BME280;39936;51.058;17.220;2024-02-04T01:59:50;101658.59;;;6.80;100.00
54022;BME280;39936;51.058;17.220;2024-02-04T02:03:22;101638.48;;;6.81;100.00
54022;BME280;39936;51.058;17.220;2024-02-04T02:06:45;101648.91;;;6.85;100.00
54022;BME280;39936;51.058;17.220;2024-02-04T02:10:31;101648.34;;;6.86;100.00
54022;BME280;39936;51.058;17.220;2024-02-04T02:14:48;101655.80;;;6.89;100.00
54022;BME280;39936;51.058;17.220;2024-02-04T02:18:19;101675.07;;;6.91;100.00
54022;BME280;39936;51.058;17.220;2024-02-04T02:26:34;101685.76;;;6.96;100.00
54022;BME280;39936;51.058;17.220;2024-02-04T02:30:37;101680.58;;;6.97;100.00
54022;BME280;39936;51.058;17.220;2024-02-04T02:34:41;101665.66;;;6.95;100.00
54022;BME280;39936;51.058;17.220;2024-02-04T02:41:44;101633.21;;;6.97;100.00
54022;BME280;39936;51.058;17.220;2024-02-04T02:45:30;101640.48;;;6.97;100.00
54022;BME280;39936;51.058;17.220;2024-02-04T02:52:51;101647.96;;;6.96;100.00
54022;BME280;39936;51.058;17.220;2024-02-04T02:56:14;101656.61;;;6.96;100.00
54022;BME280;39936;51.058;17.220;2024-02-04T02:59:42;101631.87;;;6.72;100.00
54022;BME280;39936;51.058;17.220;2024-02-04T03:03:41;101639.30;;;6.96;100.00
54022;BME280;39936;51.058;17.220;2024-02-04T03:07:50;101615.66;;;6.73;100.00
54022;BME280;39936;51.058;17.220;2024-02-04T03:11:21;101631.66;;;6.87;100.00
54022;BME280;39936;51.058;17.220;2024-02-04T03:19:05;101633.80;;;6.80;100.00
54022;BME280;39936;51.058;17.220;2024-02-04T03:22:42;101641.47;;;6.82;100.00
54022;BME280;39936;51.058;17.220;2024-02-04T03:26:18;101638.12;;;6.80;100.00
54022;BME280;39936;51.058;17.220;2024-02-04T03:30:04;101642.06;;;6.78;100.00
54022;BME280;39936;51.058;17.220;2024-02-04T03:33:39;101647.52;;;6.77;100.00
54022;BME280;39936;51.058;17.220;2024-02-04T03:37:09;101650.84;;;6.78;100.00
54022;BME280;39936;51.058;17.220;2024-02-04T03:41:11;101620.17;;;6.63;100.00
54022;BME280;39936;51.058;17.220;2024-02-04T03:45:00;101658.42;;;6.75;100.00
54022;BME280;39936;51.058;17.220;2024-02-04T03:48:51;101667.10;;;6.72;100.00
54022;BME280;39936;51.058;17.220;2024-02-04T03:52:38;101665.23;;;6.63;100.00
54022;BME280;39936;51.058;17.220;2024-02-04T03:56:23;101669.87;;;6.66;100.00
54022;BME280;39936;51.058;17.220;2024-02-04T03:59:49;101672.54;;;6.68;100.00
54022;BME280;39936;51.058;17.220;2024-02-04T04:03:16;101685.91;;;6.69;99.34
54022;BME280;39936;51.058;17.220;2024-02-04T04:06:44;101679.92;;;6.66;99.18
54022;BME280;39936;51.058;17.220;2024-02-04T04:10:34;101689.50;;;6.61;97.83
54022;BME280;39936;51.058;17.220;2024-02-04T04:14:04;101688.66;;;6.50;94.87
54022;BME280;39936;51.058;17.220;2024-02-04T04:18:36;101695.33;;;6.49;90.26
54022;BME280;39936;51.058;17.220;2024-02-04T04:22:05;101700.30;;;6.46;88.82
54022;BME280;39936;51.058;17.220;2024-02-04T04:25:54;101704.92;;;6.39;88.17
54022;BME280;39936;51.058;17.220;2024-02-04T04:29:41;101701.31;;;6.30;88.20
54022;BME280;39936;51.058;17.220;2024-02-04T04:33:42;101703.14;;;6.27;89.05
54022;BME280;39936;51.058;17.220;2024-02-04T04:37:09;101701.98;;;6.21;89.78
54022;BME280;39936;51.058;17.220;2024-02-04T04:40:56;101698.47;;;6.17;89.89
54022;BME280;39936;51.058;17.220;2024-02-04T04:44:43;101706.03;;;6.16;89.90
54022;BME280;39936;51.058;17.220;2024-02-04T04:48:11;101706.88;;;6.19;87.52
54022;BME280;39936;51.058;17.220;2024-02-04T04:51:59;101693.20;;;6.34;86.08
54022;BME280;39936;51.058;17.220;2024-02-04T04:55:45;101687.98;;;6.36;85.94
54022;BME280;39936;51.058;17.220;2024-02-04T04:59:43;101683.25;;;6.37;84.95
54022;BME280;39936;51.058;17.220;2024-02-04T05:03:33;101683.46;;;6.30;86.40
54022;BME280;39936;51.058;17.220;2024-02-04T05:07:19;101696.76;;;6.23;87.43
54022;BME280;39936;51.058;17.220;2024-02-04T05:11:33;101697.41;;;6.14;88.26
54022;BME280;39936;51.058;17.220;2024-02-04T05:15:19;101690.02;;;6.10;88.83
54022;BME280;39936;51.058;17.220;2024-02-04T05:18:47;101690.55;;;5.95;90.32
54022;BME280;39936;51.058;17.220;2024-02-04T05:26:31;101698.78;;;5.84;92.16
54022;BME280;39936;51.058;17.220;2024-02-04T05:30:37;101694.97;;;5.72;93.74
54022;BME280;39936;51.058;17.220;2024-02-04T05:35:08;101711.10;;;5.71;94.43
54022;BME280;39936;51.058;17.220;2024-02-04T05:39:14;101722.92;;;5.67;95.11
54022;BME280;39936;51.058;17.220;2024-02-04T05:42:52;101736.95;;;5.69;95.41
54022;BME280;39936;51.058;17.220;2024-02-04T05:46:41;101737.36;;;5.69;95.25
54022;BME280;39936;51.058;17.220;2024-02-04T05:50:23;101732.80;;;5.68;95.04
54022;BME280;39936;51.058;17.220;2024-02-04T05:53:45;101723.55;;;5.61;94.88
54022;BME280;39936;51.058;17.220;2024-02-04T05:57:38;101723.35;;;5.58;95.10
54022;BME280;39936;51.058;17.220;2024-02-04T06:01:46;101713.95;;;5.54;95.13
54022;BME280;39936;51.058;17.220;2024-02-04T06:05:09;101714.63;;;5.49;94.95
54022;BME280;39936;51.058;17.220;2024-02-04T06:08:57;101725.09;;;5.47;95.02
54022;BME280;39936;51.058;17.220;2024-02-04T06:13:18;101727.52;;;5.43;94.86
54022;BME280;39936;51.058;17.220;2024-02-04T06:21:14;101720.74;;;5.47;94.17
54022;BME280;39936;51.058;17.220;2024-02-04T06:24:56;101715.54;;;5.42;94.33
54022;BME280;39936;51.058;17.220;2024-02-04T06:28:53;101719.08;;;5.36;94.87
54022;BME280;39936;51.058;17.220;2024-02-04T06:32:28;101712.86;;;5.29;95.73
54022;BME280;39936;51.058;17.220;2024-02-04T06:36:13;101725.88;;;5.22;96.67
54022;BME280;39936;51.058;17.220;2024-02-04T06:40:13;101717.26;;;5.13;98.08
54022;BME280;39936;51.058;17.220;2024-02-04T06:44:29;101717.48;;;5.08;99.29
54022;BME280;39936;51.058;17.220;2024-02-04T06:52:05;101727.35;;;5.00;100.00
54022;BME280;39936;51.058;17.220;2024-02-04T06:56:03;101728.54;;;4.99;100.00
54022;BME280;39936;51.058;17.220;2024-02-04T06:59:51;101730.85;;;5.03;100.00
54022;BME280;39936;51.058;17.220;2024-02-04T07:03:49;101737.39;;;5.05;100.00
54022;BME280;39936;51.058;17.220;2024-02-04T07:07:39;101737.99;;;5.05;100.00
54022;BME280;39936;51.058;17.220;2024-02-04T07:11:04;101727.85;;;5.04;99.53
54022;BME280;39936;51.058;17.220;2024-02-04T07:19:38;101723.47;;;5.10;98.26
54022;BME280;39936;51.058;17.220;2024-02-04T07:23:30;101722.03;;;5.14;97.59
54022;BME280;39936;51.058;17.220;2024-02-04T07:26:52;101717.61;;;5.21;97.33
54022;BME280;39936;51.058;17.220;2024-02-04T07:31:01;101716.97;;;5.24;97.12
54022;BME280;39936;51.058;17.220;2024-02-04T07:34:53;101715.74;;;5.26;96.80
54022;BME280;39936;51.058;17.220;2024-02-04T07:38:42;101712.33;;;5.22;97.41
54022;BME280;39936;51.058;17.220;2024-02-04T07:42:03;101722.40;;;5.28;98.15
54022;BME280;39936;51.058;17.220;2024-02-04T07:45:40;101714.12;;;5.31;98.56
54022;BME280;39936;51.058;17.220;2024-02-04T07:49:23;101713.10;;;5.38;98.41
54022;BME280;39936;51.058;17.220;2024-02-04T07:53:56;101691.10;;;5.27;98.73
54022;BME280;39936;51.058;17.220;2024-02-04T07:57:18;101709.73;;;5.55;98.62
54022;BME280;39936;51.058;17.220;2024-02-04T08:00:57;101703.32;;;5.63;98.64
54022;BME280;39936;51.058;17.220;2024-02-04T08:04:54;101706.06;;;5.73;97.85
54022;BME280;39936;51.058;17.220;2024-02-04T08:08:43;101713.16;;;5.76;97.33
54022;BME280;39936;51.058;17.220;2024-02-04T08:12:19;101689.45;;;5.63;96.93
54022;BME280;39936;51.058;17.220;2024-02-04T08:15:53;101709.21;;;5.91;96.02
54022;BME280;39936;51.058;17.220;2024-02-04T08:20:04;101665.21;;;5.85;93.60
54022;BME280;39936;51.058;17.220;2024-02-04T08:23:59;101697.17;;;6.13;89.30
54022;BME280;39936;51.058;17.220;2024-02-04T08:27:29;101688.37;;;6.28;88.16
54022;BME280;39936;51.058;17.220;2024-02-04T08:30:56;101669.29;;;6.30;83.92
54022;BME280;39936;51.058;17.220;2024-02-04T08:34:39;101675.13;;;6.31;83.82
54022;BME280;39936;51.058;17.220;2024-02-04T08:38:36;101693.89;;;6.37;83.69
54022;BME280;39936;51.058;17.220;2024-02-04T08:42:34;101675.45;;;6.40;82.20
54022;BME280;39936;51.058;17.220;2024-02-04T08:46:13;101668.62;;;6.39;81.30
54022;BME280;39936;51.058;17.220;2024-02-04T08:50:07;101664.49;;;6.41;80.22
54022;BME280;39936;51.058;17.220;2024-02-04T08:54:02;101681.06;;;6.52;79.35
54022;BME280;39936;51.058;17.220;2024-02-04T08:57:41;101680.24;;;6.55;79.29
54022;BME280;39936;51.058;17.220;2024-02-04T09:01:38;101677.88;;;6.58;78.15
54022;BME280;39936;51.058;17.220;2024-02-04T09:05:35;101645.61;;;6.41;78.65
54022;BME280;39936;51.058;17.220;2024-02-04T09:08:57;101673.34;;;6.68;79.22
54022;BME280;39936;51.058;17.220;2024-02-04T09:12:26;101668.30;;;6.72;78.11
54022;BME280;39936;51.058;17.220;2024-02-04T09:16:05;101657.23;;;6.72;77.70
54022;BME280;39936;51.058;17.220;2024-02-04T09:19:35;101623.65;;;6.51;78.18
54022;BME280;39936;51.058;17.220;2024-02-04T09:23:17;101656.13;;;6.72;77.30
54022;BME280;39936;51.058;17.220;2024-02-04T09:26:59;101654.22;;;6.71;78.07
54022;BME280;39936;51.058;17.220;2024-02-04T09:31:10;101652.42;;;6.73;78.79
54022;BME280;39936;51.058;17.220;2024-02-04T09:35:41;101647.78;;;6.79;77.75
54022;BME280;39936;51.058;17.220;2024-02-04T09:39:13;101622.85;;;6.74;77.95
54022;BME280;39936;51.058;17.220;2024-02-04T09:42:57;101607.55;;;6.66;79.20
54022;BME280;39936;51.058;17.220;2024-02-04T09:46:28;101635.06;;;6.94;79.04
54022;BME280;39936;51.058;17.220;2024-02-04T09:50:24;101637.20;;;6.97;78.89
54022;BME280;39936;51.058;17.220;2024-02-04T09:54:20;101627.20;;;6.96;79.18
54022;BME280;39936;51.058;17.220;2024-02-04T09:57:48;101626.82;;;6.96;78.64
54022;BME280;39936;51.058;17.220;2024-02-04T10:01:35;101622.48;;;6.96;79.01
54022;BME280;39936;51.058;17.220;2024-02-04T10:05:35;101575.30;;;6.79;79.36
54022;BME280;39936;51.058;17.220;2024-02-04T10:09:02;101595.81;;;7.06;79.68
54022;BME280;39936;51.058;17.220;2024-02-04T10:12:30;101590.11;;;7.18;79.50
54022;BME280;39936;51.058;17.220;2024-02-04T10:15:53;101591.57;;;7.26;79.30
54022;BME280;39936;51.058;17.220;2024-02-04T10:19:36;101587.88;;;7.30;79.81
54022;BME280;39936;51.058;17.220;2024-02-04T10:23:11;101577.28;;;7.33;80.35
54022;BME280;39936;51.058;17.220;2024-02-04T10:26:38;101584.49;;;7.32;80.46
54022;BME280;39936;51.058;17.220;2024-02-04T10:31:58;101577.45;;;7.28;80.68
54022;BME280;39936;51.058;17.220;2024-02-04T10:35:28;101545.28;;;7.13;81.80
54022;BME280;39936;51.058;17.220;2024-02-04T10:39:16;101526.81;;;7.02;82.27
54022;BME280;39936;51.058;17.220;2024-02-04T10:42:59;101557.05;;;7.23;83.10
54022;BME280;39936;51.058;17.220;2024-02-04T10:46:29;101559.58;;;7.25;85.30
54022;BME280;39936;51.058;17.220;2024-02-04T10:50:05;101544.43;;;7.25;87.03
54022;BME280;39936;51.058;17.220;2024-02-04T10:53:46;101532.14;;;7.29;88.80
54022;BME280;39936;51.058;17.220;2024-02-04T10:57:21;101533.94;;;7.35;89.42
54022;BME280;39936;51.058;17.220;2024-02-04T11:01:14;101524.09;;;7.46;90.37
54022;BME280;39936;51.058;17.220;2024-02-04T11:05:18;101513.50;;;7.57;90.60
54022;BME280;39936;51.058;17.220;2024-02-04T11:09:19;101510.50;;;7.70;90.72
54022;BME280;39936;51.058;17.220;2024-02-04T11:12:51;101499.39;;;7.80;89.96
54022;BME280;39936;51.058;17.220;2024-02-04T11:28:16;101462.38;;;8.03;92.23
54022;BME280;39936;51.058;17.220;2024-02-04T11:32:09;101430.22;;;7.93;92.73
54022;BME280;39936;51.058;17.220;2024-02-04T11:36:24;101442.01;;;8.11;92.39
54022;BME280;39936;51.058;17.220;2024-02-04T11:40:14;101429.72;;;8.00;93.01
54022;BME280;39936;51.058;17.220;2024-02-04T11:43:55;101441.16;;;8.08;94.35
54022;BME280;39936;51.058;17.220;2024-02-04T11:47:37;101448.69;;;8.09;94.82
54022;BME280;39936;51.058;17.220;2024-02-04T11:56:53;101440.49;;;8.09;96.15
54022;BME280;39936;51.058;17.220;2024-02-04T12:02:15;101428.84;;;8.19;94.83
54022;BME280;39936;51.058;17.220;2024-02-04T12:06:23;101419.23;;;8.22;95.62
54022;BME280;39936;51.058;17.220;2024-02-04T12:10:45;101412.84;;;8.26;95.26
54022;BME280;39936;51.058;17.220;2024-02-04T12:14:22;101417.17;;;8.31;94.08
54022;BME280;39936;51.058;17.220;2024-02-04T12:18:10;101379.91;;;8.20;93.32
54022;BME280;39936;51.058;17.220;2024-02-04T12:22:02;101387.28;;;8.37;91.60
54022;BME280;39936;51.058;17.220;2024-02-04T12:25:32;101377.54;;;8.47;90.71
54022;BME280;39936;51.058;17.220;2024-02-04T12:29:31;101364.77;;;8.54;89.68
54022;BME280;39936;51.058;17.220;2024-02-04T12:33:07;101365.68;;;8.63;89.62
54022;BME280;39936;51.058;17.220;2024-02-04T12:36:39;101356.55;;;8.67;88.62
54022;BME280;39936;51.058;17.220;2024-02-04T12:40:22;101344.02;;;8.71;87.40
54022;BME280;39936;51.058;17.220;2024-02-04T12:43:55;101340.58;;;8.74;87.21
54022;BME280;39936;51.058;17.220;2024-02-04T12:47:29;101333.08;;;8.79;87.29
54022;BME280;39936;51.058;17.220;2024-02-04T12:50:59;101328.26;;;8.80;86.88
54022;BME280;39936;51.058;17.220;2024-02-04T12:54:47;101303.09;;;8.82;87.06
54022;BME280;39936;51.058;17.220;2024-02-04T12:58:45;101299.38;;;8.85;87.57
54022;BME280;39936;51.058;17.220;2024-02-04T13:02:17;101302.69;;;8.94;87.59
54022;BME280;39936;51.058;17.220;2024-02-04T13:05:42;101279.50;;;8.89;86.91
54022;BME280;39936;51.058;17.220;2024-02-04T13:09:17;101291.23;;;8.94;86.99
54022;BME280;39936;51.058;17.220;2024-02-04T13:16:40;101287.04;;;8.93;87.51
54022;BME280;39936;51.058;17.220;2024-02-04T13:20:50;101275.81;;;8.89;87.49
54022;BME280;39936;51.058;17.220;2024-02-04T13:24:37;101268.06;;;8.86;87.64
54022;BME280;39936;51.058;17.220;2024-02-04T13:28:15;101278.98;;;8.84;87.80
54022;BME280;39936;51.058;17.220;2024-02-04T13:31:55;101274.28;;;8.82;87.61
54022;BME280;39936;51.058;17.220;2024-02-04T13:35:57;101277.84;;;8.82;87.20
54022;BME280;39936;51.058;17.220;2024-02-04T13:40:56;101279.03;;;8.86;86.88
54022;BME280;39936;51.058;17.220;2024-02-04T13:45:20;101280.17;;;8.86;86.95
54022;BME280;39936;51.058;17.220;2024-02-04T13:48:52;101274.40;;;8.85;86.85
54022;BME280;39936;51.058;17.220;2024-02-04T13:52:34;101271.97;;;8.83;87.36
54022;BME280;39936;51.058;17.220;2024-02-04T13:56:06;101265.35;;;8.80;86.89
54022;BME280;39936;51.058;17.220;2024-02-04T13:59:41;101269.18;;;8.85;86.56
54022;BME280;39936;51.058;17.220;2024-02-04T14:03:20;101268.78;;;8.82;86.96
54022;BME280;39936;51.058;17.220;2024-02-04T14:06:59;101267.71;;;8.82;86.57
54022;BME280;39936;51.058;17.220;2024-02-04T14:11:04;101242.36;;;8.62;86.42
54022;BME280;39936;51.058;17.220;2024-02-04T14:14:53;101274.91;;;8.80;87.31
54022;BME280;39936;51.058;17.220;2024-02-04T14:18:40;101276.70;;;8.71;88.11
54022;BME280;39936;51.058;17.220;2024-02-04T14:22:32;101283.67;;;8.66;91.88
54022;BME280;39936;51.058;17.220;2024-02-04T14:26:06;101290.21;;;8.42;98.09
54022;BME280;39936;51.058;17.220;2024-02-04T14:29:39;101306.52;;;8.09;100.00
54022;BME280;39936;51.058;17.220;2024-02-04T14:34:00;101303.40;;;7.87;100.00
54022;BME280;39936;51.058;17.220;2024-02-04T14:37:37;101262.80;;;7.69;100.00
54022;BME280;39936;51.058;17.220;2024-02-04T14:41:28;101289.81;;;7.67;100.00
54022;BME280;39936;51.058;17.220;2024-02-04T14:49:09;101267.55;;;7.62;100.00
54022;BME280;39936;51.058;17.220;2024-02-04T14:52:51;101259.66;;;7.64;100.00
54022;BME280;39936;51.058;17.220;2024-02-04T14:57:02;101255.48;;;7.87;100.00
54022;BME280;39936;51.058;17.220;2024-02-04T15:00:41;101248.74;;;7.96;100.00
54022;BME280;39936;51.058;17.220;2024-02-04T15:04:15;101256.87;;;7.96;100.00
54022;BME280;39936;51.058;17.220;2024-02-04T15:07:52;101239.32;;;7.99;97.11
54022;BME280;39936;51.058;17.220;2024-02-04T15:12:00;101254.52;;;8.08;92.29
54022;BME280;39936;51.058;17.220;2024-02-04T15:15:50;101250.78;;;8.14;89.58
54022;BME280;39936;51.058;17.220;2024-02-04T15:19:27;101255.63;;;8.16;86.79
54022;BME280;39936;51.058;17.220;2024-02-04T15:27:28;101235.53;;;8.23;81.31
54022;BME280;39936;51.058;17.220;2024-02-04T15:31:05;101247.47;;;8.27;79.15
54022;BME280;39936;51.058;17.220;2024-02-04T15:34:42;101242.82;;;8.26;79.77
54022;BME280;39936;51.058;17.220;2024-02-04T15:38:35;101259.26;;;8.21;79.14
54022;BME280;39936;51.058;17.220;2024-02-04T15:44:25;101237.05;;;8.25;77.38
54022;BME280;39936;51.058;17.220;2024-02-04T15:48:07;101247.97;;;8.18;77.50
54022;BME280;39936;51.058;17.220;2024-02-04T15:51:47;101253.12;;;8.17;76.97
54022;BME280;39936;51.058;17.220;2024-02-04T15:55:50;101248.97;;;8.14;76.58
54022;BME280;39936;51.058;17.220;2024-02-04T16:00:03;101225.97;;;7.99;76.58
54022;BME280;39936;51.058;17.220;2024-02-04T16:03:55;101246.55;;;8.11;76.76
54022;BME280;39936;51.058;17.220;2024-02-04T16:07:51;101250.76;;;8.05;77.20
54022;BME280;39936;51.058;17.220;2024-02-04T16:19:10;101266.59;;;7.99;78.01
54022;BME280;39936;51.058;17.220;2024-02-04T16:22:56;101274.34;;;7.97;78.35
54022;BME280;39936;51.058;17.220;2024-02-04T16:26:37;101272.73;;;7.91;79.36
54022;BME280;39936;51.058;17.220;2024-02-04T16:30:51;101274.03;;;7.79;79.73
54022;BME280;39936;51.058;17.220;2024-02-04T16:34:51;101288.48;;;7.81;79.99
54022;BME280;39936;51.058;17.220;2024-02-04T16:38:22;101272.28;;;7.70;80.12
54022;BME280;39936;51.058;17.220;2024-02-04T16:42:24;101284.25;;;7.68;80.34
54022;BME280;39936;51.058;17.220;2024-02-04T16:46:42;101282.51;;;7.69;79.55
54022;BME280;39936;51.058;17.220;2024-02-04T16:50:24;101278.76;;;7.70;79.20
54022;BME280;39936;51.058;17.220;2024-02-04T16:54:59;101261.99;;;7.54;78.97
54022;BME280;39936;51.058;17.220;2024-02-04T16:59:00;101283.83;;;7.62;78.79
54022;BME280;39936;51.058;17.220;2024-02-04T17:03:20;101284.67;;;7.68;78.48
54022;BME280;39936;51.058;17.220;2024-02-04T17:06:55;101288.07;;;7.66;78.54
54022;BME280;39936;51.058;17.220;2024-02-04T17:10:47;101291.20;;;7.62;78.59
54022;BME280;39936;51.058;17.220;2024-02-04T17:14:10;101291.45;;;7.61;78.37
54022;BME280;39936;51.058;17.220;2024-02-04T17:18:33;101297.55;;;7.57;78.44
54022;BME280;39936;51.058;17.220;2024-02-04T17:22:35;101294.51;;;7.57;77.15
54022;BME280;39936;51.058;17.220;2024-02-04T17:26:28;101275.78;;;7.64;77.22
54022;BME280;39936;51.058;17.220;2024-02-04T17:34:01;101264.45;;;7.63;77.43
54022;BME280;39936;51.058;17.220;2024-02-04T17:38:37;101264.25;;;7.57;78.23
54022;BME280;39936;51.058;17.220;2024-02-04T17:42:05;101264.92;;;7.49;78.93
54022;BME280;39936;51.058;17.220;2024-02-04T17:46:02;101263.70;;;7.46;79.02
54022;BME280;39936;51.058;17.220;2024-02-04T17:49:55;101263.29;;;7.45;78.96
54022;BME280;39936;51.058;17.220;2024-02-04T17:53:22;101256.78;;;7.44;78.45
54022;BME280;39936;51.058;17.220;2024-02-04T17:57:21;101252.10;;;7.46;77.23
54022;BME280;39936;51.058;17.220;2024-02-04T18:01:05;101249.45;;;7.51;76.89
54022;BME280;39936;51.058;17.220;2024-02-04T18:05:23;101253.37;;;7.51;75.68
54022;BME280;39936;51.058;17.220;2024-02-04T18:08:52;101252.18;;;7.55;75.36
54022;BME280;39936;51.058;17.220;2024-02-04T18:12:39;101230.64;;;7.32;75.33
54022;BME280;39936;51.058;17.220;2024-02-04T18:16:09;101269.73;;;7.53;75.17
54022;BME280;39936;51.058;17.220;2024-02-04T18:19:39;101241.40;;;7.37;75.16
54022;BME280;39936;51.058;17.220;2024-02-04T18:23:02;101264.63;;;7.42;75.97
54022;BME280;39936;51.058;17.220;2024-02-04T18:26:49;101268.26;;;7.45;75.84
54022;BME280;39936;51.058;17.220;2024-02-04T18:30:12;101252.39;;;7.46;75.98
54022;BME280;39936;51.058;17.220;2024-02-04T18:33:47;101251.40;;;7.43;76.56
54022;BME280;39936;51.058;17.220;2024-02-04T18:37:16;101246.58;;;7.40;76.77
54022;BME280;39936;51.058;17.220;2024-02-04T18:40:44;101237.05;;;7.40;76.89
54022;BME280;39936;51.058;17.220;2024-02-04T18:44:45;101210.55;;;7.20;76.18
54022;BME280;39936;51.058;17.220;2024-02-04T18:48:17;101237.34;;;7.43;74.99
54022;BME280;39936;51.058;17.220;2024-02-04T18:51:53;101246.43;;;7.44;74.79
54022;BME280;39936;51.058;17.220;2024-02-04T18:55:42;101241.53;;;7.44;74.37
54022;BME280;39936;51.058;17.220;2024-02-04T18:59:35;101234.55;;;7.45;74.38
54022;BME280;39936;51.058;17.220;2024-02-04T19:03:22;101210.41;;;7.24;73.88
54022;BME280;39936;51.058;17.220;2024-02-04T19:07:11;101245.80;;;7.47;73.99
54022;BME280;39936;51.058;17.220;2024-02-04T19:11:08;101229.17;;;7.47;74.26
54022;BME280;39936;51.058;17.220;2024-02-04T19:14:44;101233.79;;;7.35;74.63
54022;BME280;39936;51.058;17.220;2024-02-04T19:18:06;101251.38;;;7.45;75.41
54022;BME280;39936;51.058;17.220;2024-02-04T19:21:47;101250.91;;;7.41;75.90
54022;BME280;39936;51.058;17.220;2024-02-04T19:25:31;101226.34;;;7.26;76.57
54022;BME280;39936;51.058;17.220;2024-02-04T19:29:20;101241.43;;;7.38;76.69
54022;BME280;39936;51.058;17.220;2024-02-04T19:33:07;101252.93;;;7.41;76.89
54022;BME280;39936;51.058;17.220;2024-02-04T19:36:39;101246.70;;;7.38;77.32
54022;BME280;39936;51.058;17.220;2024-02-04T19:40:23;101248.70;;;7.36;77.55
54022;BME280;39936;51.058;17.220;2024-02-04T19:43:47;101232.47;;;7.16;77.81
54022;BME280;39936;51.058;17.220;2024-02-04T19:47:11;101227.73;;;7.16;77.55
54022;BME280;39936;51.058;17.220;2024-02-04T19:51:12;101244.24;;;7.25;77.33
54022;BME280;39936;51.058;17.220;2024-02-04T19:54:39;101250.47;;;7.37;77.02
54022;BME280;39936;51.058;17.220;2024-02-04T19:58:25;101227.92;;;7.16;76.46
54022;BME280;39936;51.058;17.220;2024-02-04T20:06:24;101217.59;;;7.27;75.40
54022;BME280;39936;51.058;17.220;2024-02-04T20:09:55;101223.78;;;7.36;74.55
54022;BME280;39936;51.058;17.220;2024-02-04T20:13:44;101212.36;;;7.20;74.33
54022;BME280;39936;51.058;17.220;2024-02-04T20:17:25;101258.80;;;7.32;74.70
54022;BME280;39936;51.058;17.220;2024-02-04T20:21:13;101222.39;;;7.04;75.41
54022;BME280;39936;51.058;17.220;2024-02-04T20:28:42;101254.22;;;7.04;77.80
54022;BME280;39936;51.058;17.220;2024-02-04T20:32:28;101239.21;;;6.91;78.94
54022;BME280;39936;51.058;17.220;2024-02-04T20:36:04;101240.91;;;6.79;80.15
54022;BME280;39936;51.058;17.220;2024-02-04T20:39:34;101240.84;;;6.62;81.58
54022;BME280;39936;51.058;17.220;2024-02-04T20:43:12;101249.16;;;6.52;82.83
54022;BME280;39936;51.058;17.220;2024-02-04T20:46:33;101251.04;;;6.37;84.25
54022;BME280;39936;51.058;17.220;2024-02-04T20:50:07;101225.69;;;6.18;85.41
54022;BME280;39936;51.058;17.220;2024-02-04T20:53:35;101240.46;;;6.18;86.58
54022;BME280;39936;51.058;17.220;2024-02-04T20:57:38;101238.39;;;6.07;88.19
54022;BME280;39936;51.058;17.220;2024-02-04T21:01:04;101247.55;;;6.01;89.76
54022;BME280;39936;51.058;17.220;2024-02-04T21:04:58;101255.02;;;5.90;91.69
54022;BME280;39936;51.058;17.220;2024-02-04T21:09:09;101234.24;;;5.66;93.76
54022;BME280;39936;51.058;17.220;2024-02-04T21:12:49;101256.08;;;5.69;96.49
54022;BME280;39936;51.058;17.220;2024-02-04T21:16:52;101244.91;;;5.55;99.38